Time;durP1;ratioP1;P1;durP2;ratioP2;P2;SDS_P1;SDS_P2;PMS_P1;PMS_P2;Temp;Humidity;BMP_temperature;BMP_pressure;BME280_temperature;BME280_humidity;BME280_pressure;Samples;Min_cycle;Max_cycle;Signal;HPM_P1;HPM_P2
2023/07/09 00:01:53;;;;;;;10.80;5.07;;;;;;;22.16;68.54;101256.59;5041074;28;20115;-62
2023/07/09 00:04:19;;;;;;;9.15;5.30;;;;;;;22.13;68.96;101257.63;5042090;28;20410;-62
2023/07/09 00:06:45;;;;;;;8.20;5.10;;;;;;;22.07;69.17;101251.78;5045662;28;20094;-61
2023/07/09 00:09:16;;;;;;;10.57;5.63;;;;;;;22.08;69.39;101248.22;5041433;28;20036;-62
2023/07/09 00:11:43;;;;;;;10.10;5.32;;;;;;;22.03;69.79;101250.22;5037933;28;20387;-62
2023/07/09 00:14:13;;;;;;;11.20;6.07;;;;;;;21.94;70.71;101255.94;5036153;28;20033;-62
2023/07/09 00:16:40;;;;;;;7.60;4.85;;;;;;;21.86;70.79;101250.16;5041363;28;21532;-62
2023/07/09 00:19:13;;;;;;;8.90;5.15;;;;;;;21.82;71.08;101251.25;5041601;28;20472;-63
2023/07/09 00:21:40;;;;;;;7.88;5.40;;;;;;;21.76;71.53;101250.59;5036333;28;20037;-62
2023/07/09 00:24:06;;;;;;;10.32;5.43;;;;;;;21.70;71.65;101248.25;5043455;28;20129;-62
2023/07/09 00:26:32;;;;;;;7.85;4.93;;;;;;;21.67;71.70;101240.50;5040804;28;20044;-62
2023/07/09 00:28:59;;;;;;;7.47;5.18;;;;;;;21.67;71.73;101244.94;5042546;28;20041;-61
2023/07/09 00:31:25;;;;;;;7.28;4.75;;;;;;;21.69;71.27;101238.66;5039350;28;20099;-62
2023/07/09 00:33:51;;;;;;;6.95;4.88;;;;;;;21.71;70.99;101235.94;5039827;28;20056;-63
2023/07/09 00:36:23;;;;;;;10.05;5.70;;;;;;;21.72;71.30;101246.44;5039593;28;20132;-62
2023/07/09 00:38:51;;;;;;;9.45;6.13;;;;;;;21.71;71.09;101239.44;5037102;28;20048;-62
2023/07/09 00:41:23;;;;;;;6.00;4.88;;;;;;;21.68;71.45;101239.59;5044602;28;20124;-64
2023/07/09 00:43:51;;;;;;;8.35;5.43;;;;;;;21.65;71.73;101236.25;5041785;28;20052;-64
2023/07/09 00:46:19;;;;;;;9.25;6.05;;;;;;;21.60;72.13;101232.97;5042692;28;20029;-63
2023/07/09 00:48:48;;;;;;;8.70;5.30;;;;;;;21.58;72.43;101232.22;5038169;28;20911;-64
2023/07/09 00:51:17;;;;;;;9.13;5.00;;;;;;;21.54;72.29;101233.22;5038224;28;20040;-63
2023/07/09 00:53:48;;;;;;;11.02;6.13;;;;;;;21.50;72.21;101236.91;5042920;28;20032;-63
2023/07/09 00:56:22;;;;;;;8.15;4.93;;;;;;;21.48;72.27;101228.25;5034391;28;20044;-64
2023/07/09 00:58:48;;;;;;;9.25;4.97;;;;;;;21.45;72.55;101238.91;5034756;28;20037;-64
2023/07/09 01:01:18;;;;;;;8.15;5.63;;;;;;;21.47;72.27;101229.16;5029609;28;20040;-64
2023/07/09 01:03:51;;;;;;;9.52;6.07;;;;;;;21.46;72.67;101238.00;5033367;28;20036;-63
2023/07/09 01:06:24;;;;;;;8.70;5.15;;;;;;;21.41;72.73;101234.69;5038798;28;20041;-64
2023/07/09 01:08:53;;;;;;;9.90;5.57;;;;;;;21.37;72.86;101235.78;5037718;28;20103;-64
2023/07/09 01:11:23;;;;;;;7.63;5.28;;;;;;;21.34;73.01;101230.66;5038283;28;20270;-63
2023/07/09 01:14:01;;;;;;;10.55;5.55;;;;;;;21.33;73.03;101237.69;5040115;28;20025;-64
2023/07/09 01:16:40;;;;;;;6.93;5.28;;;;;;;21.32;73.19;101237.75;5038669;28;20045;-64
2023/07/09 01:19:06;;;;;;;7.22;5.10;;;;;;;21.28;72.98;101242.31;5030706;28;20037;-64
2023/07/09 01:21:32;;;;;;;8.15;5.55;;;;;;;21.28;73.25;101239.69;5037116;28;20029;-64
2023/07/09 01:23:58;;;;;;;7.13;5.25;;;;;;;21.24;73.31;101244.22;5038079;28;20037;-63
2023/07/09 01:26:27;;;;;;;8.82;4.80;;;;;;;21.21;73.46;101238.25;5039162;28;20068;-63
2023/07/09 01:28:56;;;;;;;9.52;4.97;;;;;;;21.19;73.60;101238.28;5042163;28;20069;-64
2023/07/09 01:31:23;;;;;;;9.73;5.63;;;;;;;21.16;73.80;101240.22;5040073;28;20080;-63
2023/07/09 01:33:49;;;;;;;7.68;5.32;;;;;;;21.14;73.96;101242.91;5036159;28;20132;-64
2023/07/09 01:36:23;;;;;;;10.32;5.63;;;;;;;21.13;73.96;101246.47;5038472;28;20068;-64
2023/07/09 01:38:49;;;;;;;9.02;6.15;;;;;;;21.13;74.22;101250.88;5035944;28;20930;-63
2023/07/09 01:41:14;;;;;;;8.30;5.25;;;;;;;21.13;74.26;101243.00;5037155;28;20120;-63
2023/07/09 01:43:43;;;;;;;8.20;5.13;;;;;;;21.13;74.29;101249.09;5035081;28;20112;-64
2023/07/09 01:46:12;;;;;;;9.93;5.47;;;;;;;21.11;74.12;101250.94;5037846;28;20033;-64
2023/07/09 01:48:40;;;;;;;8.77;5.85;;;;;;;21.10;74.42;101251.00;5031181;28;20041;-64
2023/07/09 01:51:12;;;;;;;8.88;5.15;;;;;;;21.06;74.45;101250.28;5039724;28;20033;-64
2023/07/09 01:53:39;;;;;;;9.63;6.25;;;;;;;21.02;74.92;101253.97;5045425;28;20480;-63
2023/07/09 01:56:07;;;;;;;10.07;6.70;;;;;;;21.00;75.33;101255.81;5034436;28;20037;-62
2023/07/09 01:58:33;;;;;;;8.02;5.40;;;;;;;20.98;75.35;101262.91;5034374;28;20086;-61
2023/07/09 02:00:59;;;;;;;10.80;5.60;;;;;;;20.95;75.43;101257.78;5036148;28;20036;-62
2023/07/09 02:03:24;;;;;;;7.95;5.10;;;;;;;20.92;75.55;101263.19;5037982;28;20048;-61
2023/07/09 02:05:52;;;;;;;13.18;6.22;;;;;;;20.91;75.88;101257.97;5038751;28;20110;-61
2023/07/09 02:08:18;;;;;;;10.73;6.18;;;;;;;20.91;75.88;101263.22;5041850;28;20119;-62
2023/07/09 02:10:44;;;;;;;9.00;5.90;;;;;;;20.87;75.98;101256.41;5041584;28;20054;-62
2023/07/09 02:13:10;;;;;;;11.40;5.68;;;;;;;20.83;76.25;101260.94;5039777;28;20037;-61
2023/07/09 02:15:36;;;;;;;12.02;6.50;;;;;;;20.78;76.53;101256.81;5038124;28;20040;-62
2023/07/09 02:18:01;;;;;;;9.95;5.28;;;;;;;20.77;76.60;101257.72;5032708;28;20057;-60
2023/07/09 02:20:27;;;;;;;9.95;5.97;;;;;;;20.74;76.66;101256.09;5037733;28;20750;-60
2023/07/09 02:22:52;;;;;;;9.63;5.97;;;;;;;20.70;76.80;101259.75;5041869;28;20100;-60
2023/07/09 02:25:18;;;;;;;7.25;5.00;;;;;;;20.67;76.79;101259.84;5020941;28;20502;-60
2023/07/09 02:27:43;;;;;;;7.95;5.43;;;;;;;20.64;77.24;101252.09;5034107;28;20160;-60
2023/07/09 02:30:10;;;;;;;8.73;5.65;;;;;;;20.60;77.01;101251.34;5032273;28;20534;-60
2023/07/09 02:32:36;;;;;;;11.02;6.68;;;;;;;20.58;77.52;101260.22;5040374;28;20047;-64
2023/07/09 02:35:02;;;;;;;9.02;5.65;;;;;;;20.55;77.69;101261.22;5041330;28;20395;-64
2023/07/09 02:37:28;;;;;;;10.70;6.30;;;;;;;20.53;77.51;101257.81;5038292;28;20665;-64
2023/07/09 02:39:53;;;;;;;7.72;5.95;;;;;;;20.52;77.74;101268.34;5039941;28;20033;-64
2023/07/09 02:42:21;;;;;;;9.57;5.55;;;;;;;20.50;77.93;101271.06;5039061;28;20068;-65
2023/07/09 02:44:46;;;;;;;9.80;6.30;;;;;;;20.47;78.05;101271.19;5040721;28;20041;-64
2023/07/09 02:47:13;;;;;;;9.43;5.57;;;;;;;20.44;78.26;101268.69;5034920;28;20029;-64
2023/07/09 02:49:39;;;;;;;10.07;6.03;;;;;;;20.45;78.50;101269.56;5035753;28;20083;-65
2023/07/09 02:52:05;;;;;;;9.27;5.78;;;;;;;20.40;78.38;101274.09;5039732;28;20128;-64
2023/07/09 02:54:31;;;;;;;10.10;6.13;;;;;;;20.39;78.46;101275.03;5049850;28;20045;-63
2023/07/09 02:56:56;;;;;;;9.48;5.70;;;;;;;20.35;78.69;101276.06;5041719;28;20828;-64
2023/07/09 02:59:22;;;;;;;7.40;5.30;;;;;;;20.33;78.47;101285.78;5038670;28;20064;-63
2023/07/09 03:01:49;;;;;;;9.88;5.75;;;;;;;20.33;78.58;101277.91;5038242;28;20045;-64
2023/07/09 03:04:15;;;;;;;10.85;6.25;;;;;;;20.33;78.59;101281.41;5038230;28;20098;-63
2023/07/09 03:06:40;;;;;;;10.55;6.35;;;;;;;20.32;78.54;101281.44;5039682;28;20045;-64
2023/07/09 03:09:06;;;;;;;9.82;5.90;;;;;;;20.29;78.76;101279.81;5036635;28;20481;-64
2023/07/09 03:11:34;;;;;;;9.02;6.07;;;;;;;20.29;78.79;101281.56;5035553;28;20032;-63
2023/07/09 03:14:01;;;;;;;9.27;6.03;;;;;;;20.29;78.79;101287.69;5031762;28;20037;-64
2023/07/09 03:16:32;;;;;;;12.32;6.15;;;;;;;20.25;79.11;101286.09;5038816;28;20114;-64
2023/07/09 03:18:59;;;;;;;11.80;7.00;;;;;;;20.19;79.42;101299.44;5039705;28;20063;-63
2023/07/09 03:21:26;;;;;;;8.07;5.72;;;;;;;20.16;79.62;101292.56;5036911;28;20048;-63
2023/07/09 03:23:52;;;;;;;9.35;5.70;;;;;;;20.15;79.72;101292.63;5034918;28;20045;-64
2023/07/09 03:26:17;;;;;;;12.18;6.47;;;;;;;20.15;80.00;101293.50;5035058;28;20037;-64
2023/07/09 03:28:43;;;;;;;8.55;5.80;;;;;;;20.16;79.91;101296.94;5034755;28;20045;-63
2023/07/09 03:31:08;;;;;;;8.57;6.10;;;;;;;20.16;79.84;101297.81;5041405;28;20048;-64
2023/07/09 03:33:34;;;;;;;9.80;6.93;;;;;;;20.16;79.52;101299.56;5035417;28;20037;-64
2023/07/09 03:35:59;;;;;;;10.95;6.22;;;;;;;20.18;79.68;101309.09;5034046;28;20037;-63
2023/07/09 03:38:25;;;;;;;10.30;6.18;;;;;;;20.20;79.53;101310.81;5039590;28;20490;-63
2023/07/09 03:40:54;;;;;;;9.93;6.22;;;;;;;20.21;79.31;101310.78;5043575;28;20098;-64
2023/07/09 03:43:20;;;;;;;11.02;6.28;;;;;;;20.21;79.33;101308.16;5032321;28;20368;-63
2023/07/09 03:45:47;;;;;;;11.75;6.57;;;;;;;20.25;79.18;101309.72;5032952;28;20037;-63
2023/07/09 03:48:15;;;;;;;11.00;6.50;;;;;;;20.28;79.13;101303.47;5037171;28;20049;-64
2023/07/09 03:50:41;;;;;;;11.82;6.03;;;;;;;20.29;78.93;101315.72;5037990;28;20730;-63
2023/07/09 03:53:07;;;;;;;11.63;6.20;;;;;;;20.30;78.83;101309.56;5042660;28;20045;-64
2023/07/09 03:55:32;;;;;;;10.93;6.10;;;;;;;20.28;79.11;101317.47;5033968;28;20448;-63
2023/07/09 03:57:57;;;;;;;11.60;6.40;;;;;;;20.27;79.12;101315.78;5033820;28;20065;-65
2023/07/09 04:00:24;;;;;;;8.55;5.53;;;;;;;20.29;79.02;101316.56;5038094;28;20115;-64
2023/07/09 04:02:51;;;;;;;9.25;6.03;;;;;;;20.32;79.15;101324.31;5039513;28;20037;-63
2023/07/09 04:05:17;;;;;;;9.48;6.03;;;;;;;20.34;79.17;101321.63;5037451;28;20028;-64
2023/07/09 04:07:43;;;;;;;9.10;5.82;;;;;;;20.36;79.17;101320.66;5039489;28;20059;-65
2023/07/09 04:10:09;;;;;;;10.25;5.75;;;;;;;20.36;79.23;101328.53;5041468;28;20203;-65
2023/07/09 04:12:36;;;;;;;15.35;6.88;;;;;;;20.37;79.43;101330.22;5040063;28;20033;-64
2023/07/09 04:15:02;;;;;;;10.35;6.30;;;;;;;20.39;79.33;101332.81;5042026;28;20045;-64
2023/07/09 04:17:27;;;;;;;10.70;6.28;;;;;;;20.41;78.93;101325.72;5036693;28;20072;-63
2023/07/09 04:19:53;;;;;;;9.90;6.28;;;;;;;20.45;78.78;101328.16;5038931;28;20398;-64
2023/07/09 04:22:18;;;;;;;11.48;6.22;;;;;;;20.49;78.37;101324.50;5042009;28;20051;-64
2023/07/09 04:24:44;;;;;;;11.80;6.20;;;;;;;20.54;77.93;101319.91;5038168;28;20056;-64
2023/07/09 04:27:10;;;;;;;10.73;6.40;;;;;;;20.54;77.54;101325.16;5035911;28;20041;-64
2023/07/09 04:29:38;;;;;;;11.05;5.65;;;;;;;20.59;77.06;101325.84;5037411;28;20038;-64
2023/07/09 04:32:21;;;;;;;11.68;5.72;;;;;;;20.64;76.65;101328.28;5038363;28;20056;-64
2023/07/09 04:34:47;;;;;;;8.63;5.55;;;;;;;20.67;76.61;101320.25;5035283;28;20413;-64
2023/07/09 04:37:16;;;;;;;10.52;5.85;;;;;;;20.69;76.46;101318.44;5036176;28;20068;-64
2023/07/09 04:39:42;;;;;;;14.93;6.50;;;;;;;20.76;76.33;101321.69;5041340;28;20095;-64
2023/07/09 04:42:13;;;;;;;10.15;6.43;;;;;;;20.80;76.49;101318.88;5041654;28;20033;-64
2023/07/09 04:44:38;;;;;;;12.10;7.03;;;;;;;20.85;76.46;101310.78;5036913;28;20658;-64
2023/07/09 04:47:04;;;;;;;10.00;6.10;;;;;;;20.88;76.33;101314.16;5036915;28;20036;-64
2023/07/09 04:49:29;;;;;;;13.18;6.03;;;;;;;20.97;76.01;101310.28;5040623;28;20591;-64
2023/07/09 04:51:56;;;;;;;12.05;6.07;;;;;;;21.02;75.59;101309.16;5038810;28;20045;-63
2023/07/09 04:54:22;;;;;;;9.63;6.72;;;;;;;21.08;75.61;101316.78;5037318;28;20068;-64
2023/07/09 04:56:48;;;;;;;10.77;6.28;;;;;;;21.13;75.12;101306.94;5039876;28;20389;-63
2023/07/09 04:59:14;;;;;;;8.20;5.90;;;;;;;21.21;75.14;101310.09;5039051;28;20040;-63
2023/07/09 05:01:39;;;;;;;15.43;6.93;;;;;;;21.28;75.29;101313.31;5034280;28;20040;-64
2023/07/09 05:04:04;;;;;;;11.15;5.72;;;;;;;21.31;74.78;101305.28;5040617;28;20048;-64
2023/07/09 05:06:30;;;;;;;9.40;5.35;;;;;;;21.39;74.57;101300.53;5035808;28;20526;-64
2023/07/09 05:08:56;;;;;;;10.35;6.15;;;;;;;21.48;74.44;101304.53;5037960;28;20045;-64
2023/07/09 05:11:21;;;;;;;9.50;6.30;;;;;;;21.55;74.29;101304.19;5041795;28;21086;-61
2023/07/09 05:13:47;;;;;;;14.45;6.38;;;;;;;21.64;74.27;101306.41;5037154;28;20036;-61
2023/07/09 05:16:12;;;;;;;10.30;6.13;;;;;;;21.71;74.05;101299.97;5042627;28;20102;-61
2023/07/09 05:18:37;;;;;;;10.80;5.75;;;;;;;21.82;73.71;101297.69;5039076;28;20067;-61
2023/07/09 05:21:03;;;;;;;11.13;5.32;;;;;;;21.94;73.12;101301.53;5041912;28;20045;-61
2023/07/09 05:23:28;;;;;;;7.82;5.53;;;;;;;22.04;73.13;101296.69;5037389;28;20055;-61
2023/07/09 05:26:02;;;;;;;10.18;5.60;;;;;;;22.15;72.75;101295.25;5046340;28;20389;-61
2023/07/09 05:28:29;;;;;;;8.98;5.68;;;;;;;22.24;72.22;101289.53;5036523;28;20135;-60
2023/07/09 05:30:54;;;;;;;12.35;6.22;;;;;;;22.33;71.64;101289.09;5036385;28;20037;-61
2023/07/09 05:33:20;;;;;;;9.13;6.03;;;;;;;22.45;71.87;101297.34;5038695;28;20095;-61
2023/07/09 05:35:45;;;;;;;9.38;5.82;;;;;;;22.52;71.17;101289.09;5041215;28;20029;-61
2023/07/09 05:38:12;;;;;;;9.40;5.78;;;;;;;22.63;70.85;101291.19;5039007;28;20478;-63
2023/07/09 05:40:38;;;;;;;10.25;5.65;;;;;;;22.71;70.48;101289.03;5039499;28;20041;-61
2023/07/09 05:43:03;;;;;;;8.05;5.80;;;;;;;22.82;69.88;101278.81;5044030;28;20047;-60
2023/07/09 05:45:28;;;;;;;10.00;5.70;;;;;;;22.89;68.67;101273.13;5043577;28;20151;-61
2023/07/09 05:47:54;;;;;;;8.70;5.65;;;;;;;22.98;68.59;101268.34;5040687;28;20128;-61
2023/07/09 05:50:19;;;;;;;8.93;5.43;;;;;;;23.09;68.92;101280.03;5035266;28;20568;-61
2023/07/09 05:52:45;;;;;;;10.23;5.65;;;;;;;23.17;68.58;101275.19;5039763;28;20078;-61
2023/07/09 05:55:10;;;;;;;11.98;5.60;;;;;;;23.27;68.38;101270.34;5041400;28;20033;-61
2023/07/09 05:57:36;;;;;;;12.93;6.00;;;;;;;23.33;68.26;101270.00;5039184;28;20048;-61
2023/07/09 06:00:02;;;;;;;12.57;6.25;;;;;;;23.42;67.96;101269.53;5035531;28;20044;-61
2023/07/09 06:02:27;;;;;;;15.30;6.35;;;;;;;23.52;67.80;101277.78;5035713;28;20033;-61
2023/07/09 06:04:52;;;;;;;9.55;6.20;;;;;;;23.61;67.54;101279.91;5043146;28;20036;-61
2023/07/09 06:07:20;;;;;;;11.13;5.80;;;;;;;23.66;66.86;101273.44;5037636;28;20183;-62
2023/07/09 06:09:46;;;;;;;10.07;5.75;;;;;;;23.81;66.92;101277.91;5036421;28;20059;-60
2023/07/09 06:12:12;;;;;;;10.32;6.15;;;;;;;23.90;66.40;101271.25;5033396;28;20383;-61
2023/07/09 06:14:38;;;;;;;11.07;5.72;;;;;;;24.01;67.01;101281.28;5035447;28;20271;-60
2023/07/09 06:17:03;;;;;;;10.02;5.43;;;;;;;24.10;66.29;101270.19;5036187;28;20147;-60
2023/07/09 06:19:29;;;;;;;8.95;5.97;;;;;;;24.19;65.92;101267.88;5035863;28;20136;-60
2023/07/09 06:21:55;;;;;;;10.02;5.22;;;;;;;24.28;66.04;101263.88;5038267;28;20040;-61
2023/07/09 06:24:21;;;;;;;7.85;5.30;;;;;;;24.37;64.48;101250.13;5039735;28;20037;-61
2023/07/09 06:26:47;;;;;;;8.23;5.07;;;;;;;24.49;64.31;101252.88;5037092;28;20037;-61
2023/07/09 06:29:12;;;;;;;12.63;5.15;;;;;;;24.60;64.03;101257.56;5030076;28;20029;-60
2023/07/09 06:31:40;;;;;;;10.02;5.35;;;;;;;24.69;61.87;101235.06;5035444;28;20055;-60
2023/07/09 06:34:07;;;;;;;13.13;5.40;;;;;;;24.79;62.20;101249.44;5035123;28;20040;-60
2023/07/09 06:36:32;;;;;;;9.07;5.00;;;;;;;24.90;62.13;101245.22;5038602;28;20045;-60
2023/07/09 06:38:58;;;;;;;8.00;4.90;;;;;;;25.03;61.91;101243.50;5042408;28;20044;-60
2023/07/09 06:41:24;;;;;;;9.57;5.70;;;;;;;25.09;61.00;101235.19;5033917;28;20036;-61
2023/07/09 06:43:49;;;;;;;9.38;5.63;;;;;;;25.20;61.16;101241.66;5040316;28;20064;-60
2023/07/09 06:46:19;;;;;;;8.38;5.28;;;;;;;25.29;61.29;101241.94;5038720;28;20045;-60
2023/07/09 06:48:44;;;;;;;9.75;4.90;;;;;;;25.35;60.82;101241.53;5032051;28;20048;-61
2023/07/09 06:51:10;;;;;;;9.60;4.95;;;;;;;25.46;60.26;101233.81;5034369;28;20041;-60
2023/07/09 06:53:36;;;;;;;8.85;5.15;;;;;;;25.55;59.92;101230.59;5039260;28;20044;-61
2023/07/09 06:56:02;;;;;;;9.25;5.43;;;;;;;25.62;60.30;101239.84;5036717;28;20099;-60
2023/07/09 06:58:33;;;;;;;7.70;5.50;;;;;;;25.74;60.25;101240.84;5031512;28;20084;-60
2023/07/09 07:01:04;;;;;;;7.70;5.30;;;;;;;25.80;60.07;101243.09;5033156;28;20418;-60
2023/07/09 07:03:30;;;;;;;9.77;5.25;;;;;;;25.81;59.81;101241.31;5033701;28;20060;-60
2023/07/09 07:05:57;;;;;;;9.93;5.47;;;;;;;25.93;59.90;101253.78;5029960;28;20041;-60
2023/07/09 07:08:24;;;;;;;9.68;5.53;;;;;;;26.00;60.37;101249.78;5034875;28;20044;-61
2023/07/09 07:11:01;;;;;;;9.30;5.38;;;;;;;26.07;60.21;101248.44;5035890;28;20102;-60
2023/07/09 07:13:28;;;;;;;11.05;5.57;;;;;;;26.12;60.29;101255.16;5025245;28;20048;-61
2023/07/09 07:15:53;;;;;;;7.57;5.05;;;;;;;26.22;59.69;101238.66;5046524;28;20147;-61
2023/07/09 07:18:19;;;;;;;10.10;5.63;;;;;;;26.35;59.21;101228.97;5032168;28;20090;-61
2023/07/09 07:20:44;;;;;;;8.10;5.00;;;;;;;26.36;58.01;101210.28;5033092;28;20147;-60
2023/07/09 07:23:10;;;;;;;8.40;5.25;;;;;;;26.49;59.00;101229.72;5034947;28;20028;-60
2023/07/09 07:25:36;;;;;;;7.75;4.47;;;;;;;26.56;57.69;101208.97;5042290;28;20457;-60
2023/07/09 07:28:01;;;;;;;10.13;5.03;;;;;;;26.64;57.70;101214.59;5035978;28;20037;-60
2023/07/09 07:30:26;;;;;;;9.07;5.40;;;;;;;26.75;57.52;101209.41;5037960;28;20124;-60
2023/07/09 07:32:52;;;;;;;7.65;5.35;;;;;;;26.90;58.01;101218.13;5034063;28;20037;-60
2023/07/09 07:35:18;;;;;;;11.65;6.22;;;;;;;27.04;58.00;101212.75;5035848;28;20036;-60
2023/07/09 07:37:43;;;;;;;10.93;5.18;;;;;;;27.14;55.55;101181.94;5038757;28;20044;-61
2023/07/09 07:40:10;;;;;;;10.52;5.15;;;;;;;27.21;55.68;101193.81;5038286;28;20048;-61
2023/07/09 07:42:35;;;;;;;8.63;5.07;;;;;;;27.26;56.42;101203.16;5038627;28;20036;-61
2023/07/09 07:45:01;;;;;;;9.35;4.78;;;;;;;27.34;56.43;101204.44;5032978;28;20056;-60
2023/07/09 07:47:27;;;;;;;11.18;5.22;;;;;;;27.46;56.05;101204.41;5041025;28;20039;-60
2023/07/09 07:49:53;;;;;;;11.93;5.63;;;;;;;27.61;55.41;101199.84;5035344;28;20094;-60
2023/07/09 07:52:18;;;;;;;7.40;5.22;;;;;;;27.72;55.08;101190.13;5035642;28;20037;-60
2023/07/09 07:54:44;;;;;;;11.63;5.43;;;;;;;27.82;54.59;101184.97;5036593;28;20555;-60
2023/07/09 07:57:10;;;;;;;11.23;4.90;;;;;;;27.97;54.13;101175.84;5035371;28;20037;-60
2023/07/09 07:59:37;;;;;;;9.82;4.70;;;;;;;28.08;54.01;101178.59;5030148;28;20021;-60
2023/07/09 08:02:03;;;;;;;10.75;5.30;;;;;;;28.17;53.79;101163.78;5037292;28;20056;-60
2023/07/09 08:04:29;;;;;;;11.15;5.05;;;;;;;28.34;52.42;101158.91;5032758;28;20123;-60
2023/07/09 08:06:54;;;;;;;6.63;4.80;;;;;;;28.41;52.15;101156.63;5036247;28;20458;-61
2023/07/09 08:09:20;;;;;;;13.55;5.57;;;;;;;28.48;52.06;101160.50;5035060;28;20053;-61
2023/07/09 08:11:45;;;;;;;7.38;4.20;;;;;;;28.58;53.00;101190.75;5034348;28;20572;-61
2023/07/09 08:14:11;;;;;;;8.23;4.63;;;;;;;28.67;52.23;101168.75;5033963;28;20025;-60
2023/07/09 08:16:37;;;;;;;8.32;4.40;;;;;;;28.78;51.37;101154.66;5035065;28;20051;-61
2023/07/09 08:19:02;;;;;;;7.90;4.70;;;;;;;28.93;50.81;101147.28;5032282;28;20026;-61
2023/07/09 08:21:28;;;;;;;9.40;4.97;;;;;;;29.01;51.46;101148.34;5034219;28;20068;-60
2023/07/09 08:23:53;;;;;;;7.53;4.88;;;;;;;29.13;52.00;101157.19;5032964;28;20494;-60
2023/07/09 08:26:19;;;;;;;6.65;4.50;;;;;;;29.24;52.08;101163.34;5034038;28;20032;-60
2023/07/09 08:28:44;;;;;;;7.40;4.80;;;;;;;29.38;50.82;101133.00;5035916;28;20486;-61
2023/07/09 08:31:09;;;;;;;7.05;4.65;;;;;;;29.50;49.55;101124.00;5037478;28;20068;-60
2023/07/09 08:33:36;;;;;;;6.47;4.65;;;;;;;29.67;49.08;101117.28;5033870;28;20044;-60
2023/07/09 08:36:01;;;;;;;7.00;4.55;;;;;;;29.74;49.65;101119.34;5034605;28;20090;-61
2023/07/09 08:38:27;;;;;;;7.90;4.93;;;;;;;29.90;48.73;101109.06;5036261;28;20140;-60
2023/07/09 08:40:59;;;;;;;7.32;4.53;;;;;;;30.00;48.63;101111.84;5033947;28;20109;-61
2023/07/09 08:43:48;;;;;;;7.38;4.43;;;;;;;30.04;47.74;101096.44;5034213;28;20033;-61
2023/07/09 08:46:27;;;;;;;6.13;4.70;;;;;;;30.13;48.08;101106.34;5032883;28;20472;-61
2023/07/09 08:48:55;;;;;;;6.18;4.25;;;;;;;30.22;48.81;101116.22;5032936;28;20060;-61
2023/07/09 08:51:38;;;;;;;11.13;4.78;;;;;;;30.33;47.60;101100.16;5036361;28;20786;-60
2023/07/09 08:54:14;;;;;;;7.87;4.57;;;;;;;30.36;47.61;101107.91;5037075;28;20064;-60
2023/07/09 08:56:40;;;;;;;7.68;4.35;;;;;;;30.42;48.55;101115.38;5037386;28;20045;-61
2023/07/09 08:59:05;;;;;;;9.05;4.75;;;;;;;30.51;46.72;101091.44;5031490;28;20031;-61
2023/07/09 09:01:33;;;;;;;6.22;4.53;;;;;;;30.70;45.61;101061.31;5032168;28;20045;-60
2023/07/09 09:04:03;;;;;;;10.02;4.30;;;;;;;30.87;45.29;101071.38;5034888;28;20045;-60
2023/07/09 09:06:31;;;;;;;9.63;4.18;;;;;;;30.95;45.84;101076.88;5032972;28;20045;-60
2023/07/09 09:09:19;;;;;;;7.68;5.47;;;;;;;31.14;44.58;101056.59;5035781;28;20126;-60
2023/07/09 09:11:53;;;;;;;8.82;4.53;;;;;;;31.24;44.03;101046.75;5038823;28;20049;-60
2023/07/09 09:14:43;;;;;;;6.00;4.45;;;;;;;31.28;43.35;101040.16;5032685;28;20102;-61
2023/07/09 09:17:14;;;;;;;6.85;4.28;;;;;;;31.35;43.70;101049.31;5032220;28;21477;-61
2023/07/09 09:19:48;;;;;;;7.97;4.82;;;;;;;31.39;43.67;101045.38;5036109;28;20124;-60
2023/07/09 09:22:19;;;;;;;7.85;4.32;;;;;;;31.47;44.13;101056.22;5039478;28;20039;-60
2023/07/09 09:25:00;;;;;;;7.07;3.80;;;;;;;31.60;44.28;101056.78;5038275;28;20048;-60
2023/07/09 09:27:25;;;;;;;6.78;4.30;;;;;;;31.70;43.15;101046.97;5033868;28;20044;-61
2023/07/09 09:29:51;;;;;;;8.38;4.93;;;;;;;31.76;43.65;101045.56;5042501;28;20097;-60
2023/07/09 09:32:27;;;;;;;7.75;4.65;;;;;;;31.80;42.73;101030.91;5038822;28;20490;-60
2023/07/09 09:34:53;;;;;;;8.95;4.13;;;;;;;31.92;42.37;101030.59;5036310;28;20098;-60
2023/07/09 09:37:32;;;;;;;7.15;4.25;;;;;;;32.12;42.01;101036.78;5035450;28;20033;-61
2023/07/09 09:39:59;;;;;;;7.35;4.57;;;;;;;32.21;42.14;101029.72;5038340;28;20063;-60
2023/07/09 09:42:25;;;;;;;7.22;4.80;;;;;;;32.25;41.05;101015.91;5035531;28;20072;-61
2023/07/09 09:44:54;;;;;;;8.90;4.40;;;;;;;32.28;41.10;101015.63;5036083;28;20183;-61
2023/07/09 09:47:19;;;;;;;8.07;4.45;;;;;;;32.46;40.82;101023.72;5039318;28;20047;-61
2023/07/09 09:49:45;;;;;;;7.80;4.32;;;;;;;32.50;41.09;101023.31;5040434;28;20028;-61
2023/07/09 09:52:17;;;;;;;11.00;4.80;;;;;;;32.68;41.58;101026.03;5030881;28;20052;-61
2023/07/09 09:54:56;;;;;;;5.90;4.05;;;;;;;32.86;40.53;101012.72;5030521;28;20513;-62
2023/07/09 09:57:24;;;;;;;6.47;4.10;;;;;;;32.92;39.91;101001.41;5030878;28;20041;-62
2023/07/09 09:59:50;;;;;;;6.18;4.13;;;;;;;33.04;40.39;101008.25;5028000;28;20044;-62
2023/07/09 10:02:19;;;;;;;9.52;4.10;;;;;;;33.09;39.93;100989.88;5034617;28;20057;-62
2023/07/09 10:04:45;;;;;;;6.75;4.32;;;;;;;33.19;40.16;100990.66;5026867;28;20112;-62
2023/07/09 10:07:21;;;;;;;6.28;4.32;;;;;;;33.31;40.32;100991.25;5033148;28;20033;-62
2023/07/09 10:09:54;;;;;;;8.35;4.18;;;;;;;33.48;38.71;100967.16;5046434;28;20044;-62
2023/07/09 10:12:22;;;;;;;6.85;4.30;;;;;;;33.79;38.41;100959.50;5042390;28;20040;-62
2023/07/09 10:15:29;;;;;;;5.45;4.00;;;;;;;33.96;37.66;100945.25;5038959;28;20806;-62
2023/07/09 10:18:30;;;;;;;6.40;3.92;;;;;;;34.13;36.66;100932.75;5035029;28;20037;-62
2023/07/09 10:21:15;;;;;;;6.20;4.25;;;;;;;34.20;37.08;100950.72;4965992;28;20118;-62
2023/07/09 10:23:52;;;;;;;4.78;3.47;;;;;;;34.43;35.69;100917.97;5026625;28;20069;-62
2023/07/09 10:26:36;;;;;;;8.70;3.97;;;;;;;34.51;34.60;100926.03;5030493;28;20086;-62
2023/07/09 10:29:24;;;;;;;5.65;3.50;;;;;;;34.62;35.29;100923.91;5029182;28;20043;-62
2023/07/09 10:32:15;;;;;;;8.43;3.72;;;;;;;34.83;34.13;100915.38;5030952;28;21077;-63
2023/07/09 10:34:55;;;;;;;7.00;3.67;;;;;;;34.86;35.17;100930.34;5037446;28;20040;-62
2023/07/09 10:37:35;;;;;;;8.10;4.25;;;;;;;34.91;34.66;100925.34;5033380;28;20052;-62
2023/07/09 10:40:04;;;;;;;8.45;4.10;;;;;;;35.02;33.81;100936.63;5034059;28;21245;-63
2023/07/09 10:42:35;;;;;;;6.60;3.90;;;;;;;35.16;33.55;100938.63;5034002;28;20044;-63
2023/07/09 10:45:46;;;;;;;6.53;4.28;;;;;;;35.27;33.99;100932.91;5034706;28;20045;-63
2023/07/09 10:48:26;;;;;;;9.50;3.92;;;;;;;35.42;33.53;100937.69;5027655;28;20046;-63
2023/07/09 10:50:53;;;;;;;6.68;3.90;;;;;;;35.47;33.43;100929.94;5032359;28;20127;-62
2023/07/09 10:53:21;;;;;;;9.57;3.65;;;;;;;35.49;32.13;100904.56;5035314;28;20505;-63
2023/07/09 10:55:52;;;;;;;6.18;3.78;;;;;;;35.68;32.37;100911.41;5036991;28;20036;-62
2023/07/09 10:58:35;;;;;;;7.90;4.20;;;;;;;35.68;31.83;100916.81;5034739;28;20425;-63
2023/07/09 11:01:02;;;;;;;6.45;3.55;;;;;;;35.85;31.76;100927.34;5037976;28;20041;-63
2023/07/09 11:03:44;;;;;;;8.57;3.70;;;;;;;35.87;33.16;100935.22;5040644;28;20043;-62
2023/07/09 11:06:22;;;;;;;7.63;4.07;;;;;;;35.67;32.81;100934.78;5054978;28;20055;-63
2023/07/09 11:08:50;;;;;;;5.47;3.65;;;;;;;35.89;32.09;100934.13;5037855;28;20056;-62
2023/07/09 11:11:37;;;;;;;7.85;4.22;;;;;;;36.01;31.32;100921.13;5035094;28;20044;-63
2023/07/09 11:14:43;;;;;;;8.93;3.47;;;;;;;36.20;31.72;100930.63;5039271;28;20391;-62
2023/07/09 11:17:15;;;;;;;4.63;3.55;;;;;;;36.35;32.17;100915.41;5037596;28;20047;-65
2023/07/09 11:19:46;;;;;;;9.05;4.13;;;;;;;36.44;30.45;100892.84;5037821;28;20813;-63
2023/07/09 11:22:20;;;;;;;6.05;3.40;;;;;;;36.48;29.42;100878.03;5033743;28;20084;-64
2023/07/09 11:24:47;;;;;;;5.40;3.33;;;;;;;36.63;29.89;100886.19;5040384;28;20742;-63
2023/07/09 11:27:18;;;;;;;5.65;3.67;;;;;;;36.59;29.79;100877.63;5036622;28;20052;-63
2023/07/09 11:29:48;;;;;;;7.03;3.35;;;;;;;36.55;29.15;100873.59;5034889;28;20522;-63